createdAt,value
2018-08-25T00:00:45.591Z,997.36
2018-08-25T00:01:45.593Z,997.31
2018-08-25T00:02:45.559Z,997.29
2018-08-25T00:03:45.547Z,997.26
2018-08-25T00:04:45.555Z,997.27
2018-08-25T00:05:45.526Z,997.23
2018-08-25T00:06:45.571Z,997.24
2018-08-25T00:07:45.504Z,997.24
2018-08-25T00:08:45.493Z,997.22
2018-08-25T00:09:45.481Z,997.27
2018-08-25T00:10:45.508Z,997.27
2018-08-25T00:11:45.456Z,997.24
2018-08-25T00:12:45.449Z,997.21
2018-08-25T00:13:45.435Z,997.23
2018-08-25T00:14:45.426Z,997.19
2018-08-25T00:15:45.450Z,997.22
2018-08-25T00:16:45.423Z,997.26
2018-08-25T00:17:45.392Z,997.21
2018-08-25T00:18:45.387Z,997.19
2018-08-25T00:19:45.370Z,997.18
2018-08-25T00:20:45.356Z,997.15
2018-08-25T00:21:45.345Z,997.12
2018-08-25T00:22:45.370Z,997.12
2018-08-25T00:23:45.330Z,997.10
2018-08-25T00:24:45.320Z,997.04
2018-08-25T00:25:45.344Z,997.02
2018-08-25T00:26:45.291Z,997.00
2018-08-25T00:27:45.281Z,996.95
2018-08-25T00:28:45.303Z,996.98
2018-08-25T00:29:45.259Z,996.97
2018-08-25T00:30:45.247Z,996.99
2018-08-25T00:31:45.255Z,996.97
2018-08-25T00:32:45.225Z,996.96
2018-08-25T00:33:45.212Z,996.92
2018-08-25T00:34:45.240Z,996.90
2018-08-25T00:35:45.192Z,996.90
2018-08-25T00:36:45.178Z,996.88
2018-08-25T00:37:45.182Z,996.87
2018-08-25T00:38:45.158Z,996.89
2018-08-25T00:39:45.146Z,996.87
2018-08-25T00:40:45.137Z,996.86
2018-08-25T00:41:45.193Z,996.84
2018-08-25T00:42:45.129Z,996.86
2018-08-25T00:43:45.102Z,996.82
2018-08-25T00:44:45.091Z,996.86
2018-08-25T00:45:45.080Z,996.88
2018-08-25T00:46:45.068Z,996.87
2018-08-25T00:47:45.135Z,996.82
2018-08-25T00:48:45.077Z,996.81
2018-08-25T00:49:45.038Z,996.75
2018-08-25T00:50:45.024Z,996.79
2018-08-25T00:51:45.026Z,996.81
2018-08-25T00:52:45.023Z,996.81
2018-08-25T00:53:44.992Z,996.75
2018-08-25T00:54:44.979Z,996.80
2018-08-25T00:55:44.971Z,996.77
2018-08-25T00:56:44.958Z,996.75
2018-08-25T00:57:44.947Z,996.73
2018-08-25T00:58:44.949Z,996.77
2018-08-25T00:59:44.932Z,996.72
2018-08-25T01:00:44.938Z,996.68
2018-08-25T01:01:44.904Z,996.73
2018-08-25T01:02:44.910Z,996.76
2018-08-25T01:03:44.882Z,996.73
2018-08-25T01:04:44.911Z,996.69
2018-08-25T01:05:44.860Z,996.68
2018-08-25T01:06:44.860Z,996.66
2018-08-25T01:07:44.836Z,996.66
2018-08-25T01:08:44.878Z,996.62
2018-08-25T01:09:44.815Z,996.57
2018-08-25T01:10:44.815Z,996.59
2018-08-25T01:11:44.790Z,996.59
2018-08-25T01:12:44.779Z,996.53
2018-08-25T01:13:44.770Z,996.51
2018-08-25T01:14:44.760Z,996.46
2018-08-25T01:15:44.895Z,996.45
2018-08-25T01:16:44.739Z,996.46
2018-08-25T01:17:44.729Z,996.47
2018-08-25T01:18:44.730Z,996.40
2018-08-25T01:19:44.715Z,996.40
2018-08-25T01:20:44.707Z,996.37
2018-08-25T01:21:44.679Z,996.39
2018-08-25T01:22:44.672Z,996.41
2018-08-25T01:23:44.668Z,996.37
2018-08-25T01:24:44.647Z,996.42
2018-08-25T01:25:44.695Z,996.45
2018-08-25T01:26:44.627Z,996.44
2018-08-25T01:27:44.614Z,996.42
2018-08-25T01:28:44.607Z,996.48
2018-08-25T01:29:44.645Z,996.44
2018-08-25T01:30:44.597Z,996.44
2018-08-25T01:31:44.571Z,996.42
2018-08-25T01:32:44.604Z,996.44
2018-08-25T01:33:44.567Z,996.38
2018-08-25T01:34:44.537Z,996.38
2018-08-25T01:35:44.527Z,996.41
2018-08-25T01:36:44.518Z,996.41
2018-08-25T01:37:44.522Z,996.36
2018-08-25T01:38:44.523Z,996.35
2018-08-25T01:39:44.497Z,996.35
2018-08-25T01:40:44.472Z,996.34
2018-08-25T01:41:44.463Z,996.32
2018-08-25T01:42:44.468Z,996.33
2018-08-25T01:43:44.452Z,996.30
2018-08-25T01:44:44.428Z,996.28
2018-08-25T01:45:44.418Z,996.24
2018-08-25T01:46:44.406Z,996.25
2018-08-25T01:47:44.406Z,996.21
2018-08-25T01:48:44.396Z,996.20
2018-08-25T01:49:44.370Z,996.23
2018-08-25T01:50:44.363Z,996.24
2018-08-25T01:51:44.348Z,996.26
2018-08-25T01:52:44.392Z,996.24
2018-08-25T01:53:44.340Z,996.21
2018-08-25T01:54:44.343Z,996.24
2018-08-25T01:55:44.305Z,996.22
2018-08-25T01:56:44.296Z,996.23
2018-08-25T01:57:44.308Z,996.19
2018-08-25T01:58:44.273Z,996.26
2018-08-25T01:59:44.263Z,996.19
2018-08-25T02:00:44.267Z,996.23
2018-08-25T02:01:44.238Z,996.19
2018-08-25T02:02:44.254Z,996.18
2018-08-25T02:03:44.223Z,996.18
2018-08-25T02:04:44.208Z,996.17
2018-08-25T02:05:44.213Z,996.15
2018-08-25T02:06:44.183Z,996.12
2018-08-25T02:07:44.177Z,996.13
2018-08-25T02:08:44.163Z,996.11
2018-08-25T02:09:44.185Z,996.08
2018-08-25T02:10:44.141Z,996.09
2018-08-25T02:11:44.132Z,996.08
2018-08-25T02:12:44.120Z,996.05
2018-08-25T02:13:44.109Z,996.06
2018-08-25T02:14:44.112Z,996.03
2018-08-25T02:15:44.099Z,996.03
2018-08-25T02:16:44.076Z,996.00
2018-08-25T02:17:44.073Z,996.00
2018-08-25T02:18:44.057Z,995.99
2018-08-25T02:19:44.058Z,996.00
2018-08-25T02:20:44.048Z,995.96
2018-08-25T02:21:44.027Z,995.96
2018-08-25T02:22:44.007Z,995.94
2018-08-25T02:23:44.004Z,995.94
2018-08-25T02:24:44.048Z,995.96
2018-08-25T02:25:43.974Z,995.92
2018-08-25T02:26:43.963Z,995.92
2018-08-25T02:27:43.953Z,995.96
2018-08-25T02:28:43.952Z,995.99
2018-08-25T02:29:43.929Z,995.96
2018-08-25T02:30:43.919Z,995.92
2018-08-25T02:31:43.929Z,995.96
2018-08-25T02:32:43.897Z,995.91
2018-08-25T02:33:43.924Z,995.88
2018-08-25T02:34:43.894Z,995.90
2018-08-25T02:35:43.871Z,995.86
2018-08-25T02:36:43.852Z,995.86
2018-08-25T02:37:43.842Z,995.89
2018-08-25T02:38:43.880Z,995.83
2018-08-25T02:39:43.836Z,995.85
2018-08-25T02:40:43.817Z,995.83
2018-08-25T02:41:43.801Z,995.80
2018-08-25T02:42:43.791Z,995.81
2018-08-25T02:43:43.794Z,995.79
2018-08-25T02:44:43.767Z,995.81
2018-08-25T02:45:43.783Z,995.72
2018-08-25T02:46:43.750Z,995.69
2018-08-25T02:47:43.736Z,995.65
2018-08-25T02:48:43.763Z,995.65
2018-08-25T02:49:43.712Z,995.61
2018-08-25T02:50:43.698Z,995.60
2018-08-25T02:51:43.712Z,995.52
2018-08-25T02:52:43.724Z,995.59
2018-08-25T02:53:43.665Z,995.53
2018-08-25T02:54:43.672Z,995.52
2018-08-25T02:55:43.644Z,995.50
2018-08-25T02:56:43.632Z,995.49
2018-08-25T02:57:43.621Z,995.47
2018-08-25T02:58:43.610Z,995.47
2018-08-25T02:59:43.616Z,995.44
2018-08-25T03:00:43.604Z,995.44
2018-08-25T03:01:43.579Z,995.50
2018-08-25T03:02:43.584Z,995.49
2018-08-25T03:03:43.556Z,995.46
2018-08-25T03:04:43.572Z,995.45
2018-08-25T03:05:43.535Z,995.43
2018-08-25T03:06:43.521Z,995.41
2018-08-25T03:07:43.511Z,995.40
2018-08-25T03:08:43.508Z,995.35
2018-08-25T03:09:43.498Z,995.42
2018-08-25T03:10:43.496Z,995.38
2018-08-25T03:11:43.468Z,995.41
2018-08-25T03:12:43.482Z,995.38
2018-08-25T03:13:43.501Z,995.39
2018-08-25T03:14:43.435Z,995.36
2018-08-25T03:15:43.443Z,995.36
2018-08-25T03:16:43.414Z,995.35
2018-08-25T03:17:43.416Z,995.40
2018-08-25T03:18:43.392Z,995.30
2018-08-25T03:19:43.380Z,995.30
2018-08-25T03:20:43.370Z,995.31
2018-08-25T03:21:43.370Z,995.29
2018-08-25T03:22:43.360Z,995.31
2018-08-25T03:23:43.334Z,995.29
2018-08-25T03:24:43.334Z,995.30
2018-08-25T03:25:43.314Z,995.31
2018-08-25T03:26:43.317Z,995.26
2018-08-25T03:27:43.291Z,995.25
2018-08-25T03:28:43.299Z,995.23
2018-08-25T03:29:43.269Z,995.20
2018-08-25T03:30:43.310Z,995.20
2018-08-25T03:31:43.276Z,995.18
2018-08-25T03:32:43.235Z,995.19
2018-08-25T03:33:43.243Z,995.19
2018-08-25T03:34:43.214Z,995.20
2018-08-25T03:35:43.202Z,995.12
2018-08-25T03:36:43.209Z,995.13
2018-08-25T03:37:43.182Z,995.12
2018-08-25T03:38:43.167Z,995.10
2018-08-25T03:39:43.160Z,995.10
2018-08-25T03:40:43.156Z,995.08
2018-08-25T03:41:43.151Z,995.10
2018-08-25T03:42:43.125Z,995.08
2018-08-25T03:43:43.112Z,995.07
2018-08-25T03:44:43.123Z,995.08
2018-08-25T03:45:43.106Z,995.07
2018-08-25T03:46:43.081Z,995.09
2018-08-25T03:47:43.081Z,995.12
2018-08-25T03:48:43.058Z,995.07
2018-08-25T03:49:43.094Z,995.08
2018-08-25T03:50:43.035Z,995.07
2018-08-25T03:51:43.025Z,995.04
2018-08-25T03:52:43.015Z,995.05
2018-08-25T03:53:43.002Z,995.06
2018-08-25T03:54:42.993Z,995.06
2018-08-25T03:55:42.996Z,995.07
2018-08-25T03:56:42.968Z,995.06
2018-08-25T03:57:42.959Z,995.02
2018-08-25T03:58:42.951Z,995.00
2018-08-25T03:59:42.947Z,994.97
2018-08-25T04:00:42.940Z,994.97
2018-08-25T04:01:42.989Z,994.95
2018-08-25T04:02:42.905Z,994.92
2018-08-25T04:03:42.892Z,994.88
2018-08-25T04:04:42.909Z,994.86
2018-08-25T04:05:42.906Z,994.84
2018-08-25T04:06:42.863Z,994.90
2018-08-25T04:07:42.848Z,994.79
2018-08-25T04:08:42.837Z,994.80
2018-08-25T04:09:42.825Z,994.78
2018-08-25T04:10:42.816Z,994.80
2018-08-25T04:11:42.815Z,994.74
2018-08-25T04:12:42.791Z,994.72
2018-08-25T04:13:42.779Z,994.65
2018-08-25T04:14:42.823Z,994.67
2018-08-25T04:15:42.758Z,994.71
2018-08-25T04:16:42.767Z,994.66
2018-08-25T04:17:42.735Z,994.64
2018-08-25T04:18:42.727Z,994.63
2018-08-25T04:19:42.716Z,994.63
2018-08-25T04:20:42.704Z,994.63
2018-08-25T04:21:42.692Z,994.63
2018-08-25T04:22:42.698Z,994.61
2018-08-25T04:23:42.669Z,994.61
2018-08-25T04:24:42.662Z,994.59
2018-08-25T04:25:42.663Z,994.59
2018-08-25T04:26:42.636Z,994.53
2018-08-25T04:27:42.637Z,994.51
2018-08-25T04:28:42.623Z,994.50
2018-08-25T04:29:42.625Z,994.56
2018-08-25T04:30:42.593Z,994.52
2018-08-25T04:31:42.599Z,994.49
2018-08-25T04:32:42.591Z,994.49
2018-08-25T04:33:42.565Z,994.48
2018-08-25T04:34:42.549Z,994.49
2018-08-25T04:35:42.539Z,994.53
2018-08-25T04:36:42.533Z,994.50
2018-08-25T04:37:42.530Z,994.49
2018-08-25T04:38:42.505Z,994.50
2018-08-25T04:39:42.490Z,994.53
2018-08-25T04:40:42.479Z,994.52
2018-08-25T04:41:42.473Z,994.50
2018-08-25T04:42:42.480Z,994.54
2018-08-25T04:43:42.446Z,994.50
2018-08-25T04:44:42.434Z,994.48
2018-08-25T04:45:42.432Z,994.48
2018-08-25T04:46:42.412Z,994.43
2018-08-25T04:47:42.401Z,994.44
2018-08-25T04:48:42.404Z,994.46
2018-08-25T04:49:42.383Z,994.46
2018-08-25T04:50:42.368Z,994.43
2018-08-25T04:51:42.361Z,994.43
2018-08-25T04:52:42.368Z,994.44
2018-08-25T04:53:42.336Z,994.44
2018-08-25T04:54:42.327Z,994.45
2018-08-25T04:55:42.312Z,994.48
2018-08-25T04:56:42.313Z,994.47
2018-08-25T04:57:42.293Z,994.50
2018-08-25T04:58:42.298Z,994.47
2018-08-25T04:59:42.318Z,994.53
2018-08-25T05:00:42.259Z,994.50
2018-08-25T05:01:42.284Z,994.49
2018-08-25T05:02:42.235Z,994.55
2018-08-25T05:03:42.226Z,994.66
2018-08-25T05:04:42.238Z,994.72
2018-08-25T05:05:42.219Z,994.81
2018-08-25T05:06:42.196Z,994.79
2018-08-25T05:07:42.240Z,994.82
2018-08-25T05:08:42.168Z,994.93
2018-08-25T05:09:42.157Z,994.93
2018-08-25T05:10:42.165Z,994.95
2018-08-25T05:11:42.134Z,994.99
2018-08-25T05:12:42.131Z,994.98
2018-08-25T05:13:42.112Z,995.07
2018-08-25T05:14:42.101Z,995.09
2018-08-25T05:15:42.105Z,995.15
2018-08-25T05:16:42.079Z,995.20
2018-08-25T05:17:42.068Z,995.19
2018-08-25T05:18:42.059Z,995.18
2018-08-25T05:19:42.064Z,995.28
2018-08-25T05:20:42.040Z,995.26
2018-08-25T05:21:42.024Z,995.27
2018-08-25T05:22:42.015Z,995.21
2018-08-25T05:23:42.016Z,995.15
2018-08-25T05:24:42.017Z,995.10
2018-08-25T05:25:41.982Z,995.16
2018-08-25T05:26:41.969Z,995.18
2018-08-25T05:27:41.958Z,995.21
2018-08-25T05:28:41.948Z,995.26
2018-08-25T05:29:41.939Z,995.21
2018-08-25T05:30:41.943Z,995.23
2018-08-25T05:31:41.919Z,995.20
2018-08-25T05:32:41.919Z,995.22
2018-08-25T05:33:41.892Z,995.24
2018-08-25T05:34:41.883Z,995.19
2018-08-25T05:35:41.872Z,995.17
2018-08-25T05:36:41.860Z,995.15
2018-08-25T05:37:41.865Z,995.17
2018-08-25T05:38:41.838Z,995.11
2018-08-25T05:39:41.827Z,995.11
2018-08-25T05:40:41.821Z,995.14
2018-08-25T05:41:41.808Z,995.10
2018-08-25T05:42:41.820Z,995.08
2018-08-25T05:43:41.787Z,995.05
2018-08-25T05:44:41.788Z,995.05
2018-08-25T05:45:41.763Z,995.07
2018-08-25T05:46:41.752Z,995.06
2018-08-25T05:47:41.739Z,995.09
2018-08-25T05:48:41.748Z,995.09
2018-08-25T05:49:41.721Z,995.08
2018-08-25T05:50:41.707Z,995.09
2018-08-25T05:51:41.697Z,995.05
2018-08-25T05:52:41.685Z,994.96
2018-08-25T05:53:41.676Z,994.96
2018-08-25T05:54:41.680Z,994.95
2018-08-25T05:55:41.656Z,994.97
2018-08-25T05:56:41.643Z,994.98
2018-08-25T05:57:41.690Z,995.00
2018-08-25T05:58:41.626Z,994.94
2018-08-25T05:59:41.623Z,994.99
2018-08-25T06:00:41.602Z,994.97
2018-08-25T06:01:41.617Z,994.95
2018-08-25T06:02:41.576Z,994.94
2018-08-25T06:03:41.563Z,994.95
2018-08-25T06:04:41.556Z,994.98
2018-08-25T06:05:41.547Z,994.95
2018-08-25T06:06:41.639Z,994.99
2018-08-25T06:07:41.538Z,995.02
2018-08-25T06:08:41.513Z,994.97
2018-08-25T06:09:41.500Z,994.91
2018-08-25T06:10:41.488Z,994.93
2018-08-25T06:11:41.476Z,994.97
2018-08-25T06:12:41.483Z,994.96
2018-08-25T06:13:41.496Z,994.97
2018-08-25T06:14:41.448Z,994.97
2018-08-25T06:15:41.439Z,994.98
2018-08-25T06:16:41.422Z,995.02
2018-08-25T06:17:41.432Z,994.99
2018-08-25T06:18:41.403Z,995.00
2018-08-25T06:19:41.404Z,994.97
2018-08-25T06:20:41.380Z,994.98
2018-08-25T06:21:41.368Z,994.98
2018-08-25T06:22:41.362Z,994.97
2018-08-25T06:23:41.346Z,994.94
2018-08-25T06:24:41.373Z,994.95
2018-08-25T06:25:41.326Z,994.93
2018-08-25T06:26:41.316Z,994.94
2018-08-25T06:27:41.305Z,994.95
2018-08-25T06:28:41.290Z,994.94
2018-08-25T06:29:41.360Z,994.97
2018-08-25T06:30:41.284Z,994.91
2018-08-25T06:31:41.261Z,994.96
2018-08-25T06:32:41.249Z,994.95
2018-08-25T06:33:41.235Z,995.05
2018-08-25T06:34:41.225Z,995.00
2018-08-25T06:35:41.255Z,994.98
2018-08-25T06:36:41.321Z,994.97
2018-08-25T06:37:41.192Z,994.97
2018-08-25T06:38:41.183Z,995.00
2018-08-25T06:39:41.170Z,994.95
2018-08-25T06:40:41.162Z,994.96
2018-08-25T06:41:41.172Z,994.92
2018-08-25T06:42:41.148Z,994.96
2018-08-25T06:43:41.248Z,994.96
2018-08-25T06:44:41.121Z,994.97
2018-08-25T06:45:41.105Z,994.96
2018-08-25T06:46:41.096Z,994.97
2018-08-25T06:47:41.100Z,995.00
2018-08-25T06:48:41.073Z,995.00
2018-08-25T06:49:41.068Z,994.94
2018-08-25T06:50:41.051Z,994.98
2018-08-25T06:51:41.053Z,994.95
2018-08-25T06:52:41.030Z,994.86
2018-08-25T06:53:41.016Z,994.97
2018-08-25T06:54:41.008Z,994.95
2018-08-25T06:55:40.995Z,994.93
2018-08-25T06:56:40.999Z,994.90
2018-08-25T06:57:40.972Z,994.90
2018-08-25T06:58:40.961Z,994.91
2018-08-25T06:59:41.031Z,994.95
2018-08-25T07:00:40.939Z,994.94
2018-08-25T07:01:40.946Z,994.93
2018-08-25T07:02:40.919Z,994.97
2018-08-25T07:03:40.905Z,995.00
2018-08-25T07:04:40.899Z,994.95
2018-08-25T07:05:40.887Z,995.04
2018-08-25T07:06:40.873Z,995.02
2018-08-25T07:07:40.916Z,994.99
2018-08-25T07:08:40.851Z,994.99
2018-08-25T07:09:40.840Z,995.15
2018-08-25T07:10:40.831Z,995.06
2018-08-25T07:11:40.820Z,994.96
2018-08-25T07:12:40.814Z,995.00
2018-08-25T07:13:40.808Z,995.06
2018-08-25T07:14:40.825Z,994.97
2018-08-25T07:15:40.776Z,995.00
2018-08-25T07:16:40.764Z,995.04
2018-08-25T07:17:40.757Z,995.01
2018-08-25T07:18:40.744Z,995.01
2018-08-25T07:19:40.729Z,995.03
2018-08-25T07:20:40.737Z,995.06
2018-08-25T07:21:40.707Z,995.08
2018-08-25T07:22:40.696Z,995.07
2018-08-25T07:23:40.687Z,995.14
2018-08-25T07:24:40.675Z,995.19
2018-08-25T07:25:40.715Z,995.12
2018-08-25T07:26:40.654Z,995.16
2018-08-25T07:27:40.641Z,995.11
2018-08-25T07:28:40.631Z,995.12
2018-08-25T07:29:40.619Z,995.26
2018-08-25T07:30:40.623Z,995.24
2018-08-25T07:31:40.596Z,995.21
2018-08-25T07:32:40.588Z,995.21
2018-08-25T07:33:40.576Z,995.17
2018-08-25T07:34:40.579Z,995.17
2018-08-25T07:35:40.556Z,995.21
2018-08-25T07:36:40.555Z,995.20
2018-08-25T07:37:40.532Z,995.30
2018-08-25T07:38:40.523Z,995.29
2018-08-25T07:39:40.509Z,995.24
2018-08-25T07:40:40.523Z,995.23
2018-08-25T07:41:40.487Z,995.26
2018-08-25T07:42:40.484Z,995.26
2018-08-25T07:43:40.466Z,995.22
2018-08-25T07:44:40.453Z,995.27
2018-08-25T07:45:40.443Z,995.27
2018-08-25T07:46:40.450Z,995.21
2018-08-25T07:47:40.419Z,995.23
2018-08-25T07:48:40.437Z,995.31
2018-08-25T07:49:40.530Z,995.31
2018-08-25T07:50:40.390Z,995.23
2018-08-25T07:51:40.392Z,995.35
2018-08-25T07:52:40.389Z,995.37
2018-08-25T07:53:40.375Z,995.37
2018-08-25T07:54:40.345Z,995.25
2018-08-25T07:55:40.334Z,995.26
2018-08-25T07:56:40.324Z,995.29
2018-08-25T07:57:40.352Z,995.32
2018-08-25T07:58:40.459Z,995.31
2018-08-25T07:59:40.288Z,995.59
2018-08-25T08:00:40.275Z,995.64
2018-08-25T08:01:40.263Z,995.63
2018-08-25T08:02:40.268Z,995.33
2018-08-25T08:03:40.258Z,995.52
2018-08-25T08:04:40.232Z,995.47
2018-08-25T08:05:40.291Z,995.62
2018-08-25T08:06:40.211Z,995.54
2018-08-25T08:07:40.215Z,995.52
2018-08-25T08:08:40.188Z,995.35
2018-08-25T08:09:40.177Z,995.60
2018-08-25T08:10:40.207Z,995.52
2018-08-25T08:11:40.192Z,995.58
2018-08-25T08:12:40.170Z,995.36
2018-08-25T08:13:40.132Z,995.49
2018-08-25T08:14:40.195Z,995.39
2018-08-25T08:15:40.120Z,995.40
2018-08-25T08:16:40.112Z,995.41
2018-08-25T08:17:40.133Z,995.67
2018-08-25T08:18:40.115Z,995.48
2018-08-25T08:19:40.067Z,995.53
2018-08-25T08:20:40.055Z,995.49
2018-08-25T08:21:40.095Z,995.83
2018-08-25T08:22:40.033Z,995.51
2018-08-25T08:23:40.020Z,995.48
2018-08-25T08:24:40.119Z,995.53
2018-08-25T08:25:40.000Z,995.56
2018-08-25T08:26:39.991Z,995.61
2018-08-25T08:27:39.977Z,995.50
2018-08-25T08:28:39.988Z,995.61
2018-08-25T08:29:39.958Z,995.43
2018-08-25T08:30:40.095Z,995.49
2018-08-25T08:31:39.936Z,995.70
2018-08-25T08:32:39.922Z,995.50
2018-08-25T08:33:39.908Z,995.48
2018-08-25T08:34:39.916Z,995.65
2018-08-25T08:35:39.892Z,995.58
2018-08-25T08:36:39.952Z,995.75
2018-08-25T08:37:39.870Z,995.62
2018-08-25T08:38:39.873Z,995.59
2018-08-25T08:39:40.092Z,995.73
2018-08-25T08:40:39.883Z,995.72
2018-08-25T08:41:39.818Z,995.88
2018-08-25T08:42:39.932Z,995.88
2018-08-25T08:43:39.929Z,995.88
2018-08-25T08:44:39.803Z,995.77
2018-08-25T08:45:39.817Z,995.60
2018-08-25T08:46:39.765Z,995.51
2018-08-25T08:47:39.799Z,995.60
2018-08-25T08:48:39.747Z,995.63
2018-08-25T08:49:46.597Z,995.61
2018-08-25T08:50:39.727Z,995.62
2018-08-25T08:51:39.724Z,995.61
2018-08-25T08:52:39.701Z,995.76
2018-08-25T08:53:39.687Z,995.67
2018-08-25T08:54:39.780Z,995.72
2018-08-25T08:55:39.669Z,995.71
2018-08-25T08:56:39.685Z,995.74
2018-08-25T08:57:39.764Z,995.87
2018-08-25T08:58:39.631Z,995.70
2018-08-25T08:59:39.622Z,995.71
2018-08-25T09:00:39.608Z,995.69
2018-08-25T09:01:39.605Z,995.63
2018-08-25T09:02:39.609Z,995.72
2018-08-25T09:03:39.686Z,995.75
2018-08-25T09:04:39.568Z,995.84
2018-08-25T09:05:39.579Z,996.06
2018-08-25T09:06:39.543Z,995.93
2018-08-25T09:07:39.532Z,996.00
2018-08-25T09:08:39.651Z,995.73
2018-08-25T09:09:39.619Z,995.70
2018-08-25T09:10:39.495Z,995.69
2018-08-25T09:11:39.533Z,995.65
2018-08-25T09:12:39.474Z,995.62
2018-08-25T09:13:39.542Z,995.55
2018-08-25T09:14:39.465Z,995.59
2018-08-25T09:15:39.445Z,995.60
2018-08-25T09:16:39.428Z,995.65
2018-08-25T09:17:39.468Z,995.69
2018-08-25T09:18:39.428Z,995.74
2018-08-25T09:19:39.395Z,995.92
2018-08-25T09:20:39.384Z,995.89
2018-08-25T09:21:39.372Z,995.97
2018-08-25T09:22:39.405Z,995.92
2018-08-25T09:23:39.350Z,996.07
2018-08-25T09:24:39.353Z,996.06
2018-08-25T09:25:39.329Z,996.11
2018-08-25T09:26:39.318Z,996.13
2018-08-25T09:27:39.311Z,996.20
2018-08-25T09:28:39.313Z,996.22
2018-08-25T09:29:39.309Z,996.19
2018-08-25T09:30:39.272Z,996.14
2018-08-25T09:31:39.267Z,996.11
2018-08-25T09:32:39.252Z,996.15
2018-08-25T09:33:39.245Z,996.21
2018-08-25T09:34:39.237Z,996.15
2018-08-25T09:35:39.245Z,996.14
2018-08-25T09:36:39.258Z,996.25
2018-08-25T09:37:39.203Z,996.17
2018-08-25T09:38:39.185Z,996.17
2018-08-25T09:39:39.176Z,996.17
2018-08-25T09:40:39.167Z,996.20
2018-08-25T09:41:39.181Z,996.26
2018-08-25T09:42:39.143Z,996.28
2018-08-25T09:43:39.134Z,996.30
2018-08-25T09:44:39.121Z,996.27
2018-08-25T09:45:39.112Z,996.25
2018-08-25T09:46:39.097Z,996.25
2018-08-25T09:47:39.106Z,996.30
2018-08-25T09:48:39.075Z,996.31
2018-08-25T09:49:39.079Z,996.27
2018-08-25T09:50:39.057Z,996.33
2018-08-25T09:51:39.046Z,996.26
2018-08-25T09:52:39.033Z,996.30
2018-08-25T09:53:39.135Z,996.39
2018-08-25T09:54:39.035Z,996.38
2018-08-25T09:55:39.003Z,996.32
2018-08-25T09:56:38.989Z,996.33
2018-08-25T09:57:38.980Z,996.39
2018-08-25T09:58:38.967Z,996.45
2018-08-25T09:59:38.959Z,996.48
2018-08-25T10:00:38.964Z,996.48
2018-08-25T10:01:38.936Z,996.42
2018-08-25T10:02:38.923Z,996.49
2018-08-25T10:03:38.911Z,996.51
2018-08-25T10:04:38.904Z,996.50
2018-08-25T10:05:38.891Z,996.55
2018-08-25T10:06:38.920Z,996.49
2018-08-25T10:07:38.868Z,996.49
2018-08-25T10:08:38.856Z,996.49
2018-08-25T10:09:38.848Z,996.42
2018-08-25T10:10:38.836Z,996.42
2018-08-25T10:11:38.825Z,996.47
2018-08-25T10:12:38.833Z,996.61
2018-08-25T10:13:38.809Z,996.54
2018-08-25T10:14:38.794Z,996.61
2018-08-25T10:15:38.779Z,996.58
2018-08-25T10:16:38.770Z,996.68
2018-08-25T10:17:38.776Z,996.66
2018-08-25T10:18:38.762Z,996.72
2018-08-25T10:19:38.739Z,996.71
2018-08-25T10:20:38.727Z,996.72
2018-08-25T10:21:38.716Z,996.62
2018-08-25T10:22:38.702Z,996.65
2018-08-25T10:23:38.756Z,996.61
2018-08-25T10:24:38.699Z,996.64
2018-08-25T10:25:38.670Z,996.61
2018-08-25T10:26:38.660Z,996.66
2018-08-25T10:27:38.647Z,996.69
2018-08-25T10:28:38.650Z,996.64
2018-08-25T10:29:38.624Z,996.69
2018-08-25T10:30:38.614Z,996.70
2018-08-25T10:31:38.603Z,996.68
2018-08-25T10:32:38.594Z,996.67
2018-08-25T10:33:38.594Z,996.69
2018-08-25T10:34:38.585Z,996.68
2018-08-25T10:35:38.577Z,996.70
2018-08-25T10:36:38.551Z,996.75
2018-08-25T10:37:38.537Z,996.74
2018-08-25T10:38:38.547Z,997.03
2018-08-25T10:39:38.515Z,997.16
2018-08-25T10:40:38.503Z,997.16
2018-08-25T10:41:38.572Z,996.67
2018-08-25T10:42:38.494Z,996.62
2018-08-25T10:43:38.474Z,996.60
2018-08-25T10:44:38.481Z,996.69
2018-08-25T10:45:38.447Z,996.87
2018-08-25T10:46:38.436Z,996.73
2018-08-25T10:47:38.427Z,996.91
2018-08-25T10:48:38.419Z,997.13
2018-08-25T10:49:38.410Z,997.02
2018-08-25T10:50:38.408Z,997.07
2018-08-25T10:51:38.383Z,997.06
2018-08-25T10:52:38.387Z,997.14
2018-08-25T10:53:38.360Z,997.13
2018-08-25T10:54:38.352Z,996.75
2018-08-25T10:55:38.353Z,997.13
2018-08-25T10:56:38.330Z,997.18
2018-08-25T10:57:38.332Z,997.22
2018-08-25T10:58:38.308Z,997.21
2018-08-25T10:59:38.294Z,997.26
2018-08-25T11:00:38.482Z,996.92
2018-08-25T11:01:38.274Z,997.18
2018-08-25T11:02:38.265Z,997.24
2018-08-25T11:03:38.256Z,997.32
2018-08-25T11:04:38.241Z,996.83
2018-08-25T11:05:38.230Z,997.36
2018-08-25T11:06:38.243Z,997.05
2018-08-25T11:07:38.211Z,996.84
2018-08-25T11:08:38.207Z,996.90
2018-08-25T11:09:38.190Z,996.82
2018-08-25T11:10:38.175Z,997.37
2018-08-25T11:11:38.170Z,996.91
2018-08-25T11:12:38.172Z,996.88
2018-08-25T11:13:38.160Z,997.24
2018-08-25T11:14:38.136Z,997.07
2018-08-25T11:15:38.128Z,997.29
2018-08-25T11:16:38.115Z,997.29
2018-08-25T11:17:38.106Z,997.15
2018-08-25T11:18:38.096Z,997.41
2018-08-25T11:19:38.105Z,997.35
2018-08-25T11:20:38.068Z,997.38
2018-08-25T11:21:38.069Z,996.89
2018-08-25T11:22:38.051Z,997.45
2018-08-25T11:23:38.068Z,997.29
2018-08-25T11:24:38.029Z,997.35
2018-08-25T11:25:38.030Z,997.26
2018-08-25T11:26:38.008Z,997.38
2018-08-25T11:27:38.086Z,997.41
2018-08-25T11:28:37.987Z,997.36
2018-08-25T11:29:37.975Z,997.06
2018-08-25T11:30:37.978Z,996.78
2018-08-25T11:31:37.957Z,997.06
2018-08-25T11:32:37.951Z,997.14
2018-08-25T11:33:37.962Z,997.35
2018-08-25T11:34:37.918Z,996.81
2018-08-25T11:35:37.926Z,996.86
2018-08-25T11:36:37.896Z,996.87
2018-08-25T11:37:37.954Z,996.89
2018-08-25T11:38:37.874Z,996.79
2018-08-25T11:39:37.869Z,996.84
2018-08-25T11:40:37.856Z,996.80
2018-08-25T11:41:37.860Z,996.86
2018-08-25T11:42:37.840Z,996.92
2018-08-25T11:43:37.819Z,996.96
2018-08-25T11:44:37.812Z,996.98
2018-08-25T11:45:37.799Z,996.98
2018-08-25T11:46:37.825Z,997.04
2018-08-25T11:47:37.868Z,997.01
2018-08-25T11:48:37.842Z,996.96
2018-08-25T11:49:37.757Z,997.02
2018-08-25T11:50:37.745Z,997.00
2018-08-25T11:51:37.759Z,997.05
2018-08-25T11:52:37.819Z,997.03
2018-08-25T11:53:37.715Z,997.09
2018-08-25T11:54:37.707Z,997.04
2018-08-25T11:55:37.806Z,997.07
2018-08-25T11:56:37.681Z,997.12
2018-08-25T11:57:37.686Z,997.10
2018-08-25T11:58:37.763Z,997.12
2018-08-25T11:59:37.648Z,997.19
2018-08-25T12:00:37.639Z,997.11
2018-08-25T12:01:37.678Z,997.16
2018-08-25T12:02:37.713Z,997.30
2018-08-25T12:03:37.673Z,997.08
2018-08-25T12:04:37.592Z,997.14
2018-08-25T12:05:37.582Z,997.09
2018-08-25T12:06:37.569Z,997.51
2018-08-25T12:07:37.584Z,997.03
2018-08-25T12:08:37.548Z,997.06
2018-08-25T12:09:37.568Z,997.01
2018-08-25T12:10:37.532Z,997.06
2018-08-25T12:11:37.516Z,997.38
2018-08-25T12:12:37.524Z,997.59
2018-08-25T12:13:37.492Z,997.72
2018-08-25T12:14:37.483Z,997.63
2018-08-25T12:15:37.472Z,997.62
2018-08-25T12:16:37.468Z,997.55
2018-08-25T12:17:37.476Z,997.47
2018-08-25T12:18:37.440Z,997.44
2018-08-25T12:19:37.463Z,997.55
2018-08-25T12:20:37.417Z,997.58
2018-08-25T12:21:37.407Z,997.56
2018-08-25T12:22:37.486Z,997.63
2018-08-25T12:23:37.448Z,997.58
2018-08-25T12:24:37.376Z,997.54
2018-08-25T12:25:37.363Z,997.53
2018-08-25T12:26:37.354Z,997.57
2018-08-25T12:27:37.343Z,997.36
2018-08-25T12:28:37.334Z,997.45